createdAt,value
2023-03-26T00:00:33.208Z,56.26
2023-03-26T00:01:33.408Z,56.85
2023-03-26T00:02:33.268Z,59.28
2023-03-26T00:03:33.169Z,57.70
2023-03-26T00:04:33.198Z,58.48
2023-03-26T00:05:33.189Z,61.34
2023-03-26T00:06:33.159Z,59.65
2023-03-26T00:07:33.162Z,58.31
2023-03-26T00:08:33.139Z,59.85
2023-03-26T00:09:33.109Z,57.53
2023-03-26T00:10:33.118Z,52.99
2023-03-26T00:11:33.136Z,54.41
2023-03-26T00:12:33.108Z,56.28
2023-03-26T00:13:33.084Z,56.56
2023-03-26T00:14:33.076Z,51.79
2023-03-26T00:15:33.089Z,52.48
2023-03-26T00:16:33.111Z,53.73
2023-03-26T00:17:33.065Z,55.98
2023-03-26T00:18:33.047Z,56.41
2023-03-26T00:19:33.047Z,51.88
2023-03-26T00:20:32.984Z,51.47
2023-03-26T00:21:33.050Z,54.84
2023-03-26T00:22:33.002Z,52.58
2023-03-26T00:23:32.999Z,49.27
2023-03-26T00:24:32.983Z,49.10
2023-03-26T00:25:32.983Z,53.59
2023-03-26T00:26:32.978Z,50.22
2023-03-26T00:27:32.943Z,52.92
2023-03-26T00:28:32.962Z,49.05
2023-03-26T00:29:32.898Z,57.39
2023-03-26T00:30:32.925Z,56.00
2023-03-26T00:31:32.950Z,57.96
2023-03-26T00:32:32.966Z,57.17
2023-03-26T00:33:32.874Z,58.34
2023-03-26T00:34:32.886Z,56.60
2023-03-26T00:35:32.923Z,55.79
2023-03-26T00:36:32.836Z,53.41
2023-03-26T00:37:32.848Z,55.11
2023-03-26T00:38:32.844Z,52.04
2023-03-26T00:39:32.809Z,54.36
2023-03-26T00:40:32.810Z,53.58
2023-03-26T00:41:32.853Z,56.95
2023-03-26T00:42:32.791Z,54.19
2023-03-26T00:43:32.818Z,55.91
2023-03-26T00:44:32.777Z,55.67
2023-03-26T00:45:32.777Z,55.77
2023-03-26T00:46:32.832Z,57.54
2023-03-26T00:47:32.752Z,58.66
2023-03-26T00:48:44.517Z,55.50
2023-03-26T00:49:34.739Z,56.72
2023-03-26T00:50:32.736Z,60.73
2023-03-26T00:51:32.712Z,57.10
2023-03-26T00:52:33.124Z,58.82
2023-03-26T00:53:32.732Z,55.99
2023-03-26T00:54:32.681Z,56.65
2023-03-26T00:55:32.669Z,60.89
2023-03-26T00:56:32.712Z,53.85
2023-03-26T00:57:35.809Z,60.67
2023-03-26T00:58:33.656Z,53.25
2023-03-26T00:59:32.649Z,56.65
2023-03-26T01:00:32.595Z,54.75
2023-03-26T01:01:32.681Z,53.59
2023-03-26T01:02:32.672Z,50.24
2023-03-26T01:03:32.615Z,55.39
2023-03-26T01:04:32.781Z,54.26
2023-03-26T01:05:32.596Z,57.94
2023-03-26T01:06:32.549Z,54.98
2023-03-26T01:07:32.529Z,51.08
2023-03-26T01:08:32.523Z,54.81
2023-03-26T01:09:33.522Z,47.79
2023-03-26T01:10:32.518Z,51.84
2023-03-26T01:11:32.521Z,48.97
2023-03-26T01:12:32.525Z,47.72
2023-03-26T01:13:32.469Z,46.70
2023-03-26T01:14:32.464Z,51.43
2023-03-26T01:15:32.502Z,50.24
2023-03-26T01:16:32.418Z,53.47
2023-03-26T01:17:32.484Z,49.56
2023-03-26T01:18:32.454Z,54.63
2023-03-26T01:19:32.398Z,50.95
2023-03-26T01:20:32.390Z,51.19
2023-03-26T01:21:32.402Z,53.59
2023-03-26T01:22:32.402Z,55.87
2023-03-26T01:23:32.349Z,54.14
2023-03-26T01:24:32.382Z,50.60
2023-03-26T01:25:32.338Z,48.63
2023-03-26T01:26:32.340Z,52.95
2023-03-26T01:27:32.338Z,51.82
2023-03-26T01:28:32.321Z,51.25
2023-03-26T01:29:32.316Z,49.96
2023-03-26T01:30:32.316Z,47.97
2023-03-26T01:31:32.313Z,47.09
2023-03-26T01:32:32.390Z,49.58
2023-03-26T01:33:32.390Z,46.99
2023-03-26T01:34:32.299Z,45.25
2023-03-26T01:35:32.249Z,53.24
2023-03-26T01:36:32.233Z,46.59
2023-03-26T01:37:32.277Z,52.16
2023-03-26T01:38:32.245Z,48.85
2023-03-26T01:39:32.227Z,45.28
2023-03-26T01:40:32.249Z,48.70
2023-03-26T01:41:33.166Z,51.36
2023-03-26T01:42:32.176Z,47.35
2023-03-26T01:43:32.177Z,47.37
2023-03-26T01:44:32.191Z,51.79
2023-03-26T01:45:32.149Z,51.21
2023-03-26T01:46:32.171Z,54.31
2023-03-26T01:47:32.148Z,46.61
2023-03-26T01:48:32.131Z,48.68
2023-03-26T01:49:32.085Z,50.65
2023-03-26T01:50:32.096Z,53.08
2023-03-26T01:51:32.107Z,52.35
2023-03-26T01:52:32.119Z,49.55
2023-03-26T01:53:32.064Z,48.27
2023-03-26T01:54:32.067Z,52.60
2023-03-26T01:55:32.079Z,48.56
2023-03-26T01:56:32.095Z,57.04
2023-03-26T01:57:32.029Z,52.08
2023-03-26T01:58:32.001Z,53.11
2023-03-26T01:59:31.994Z,49.21
2023-03-26T02:00:31.987Z,45.41
2023-03-26T02:01:32.030Z,48.09
2023-03-26T02:02:32.132Z,53.78
2023-03-26T02:03:32.015Z,52.40
2023-03-26T02:04:31.972Z,48.00
2023-03-26T02:05:31.935Z,49.87
2023-03-26T02:06:31.933Z,47.94
2023-03-26T02:07:31.937Z,47.87
2023-03-26T02:08:31.935Z,54.27
2023-03-26T02:09:31.878Z,50.84
2023-03-26T02:10:31.875Z,48.83
2023-03-26T02:11:35.383Z,48.33
2023-03-26T02:12:32.870Z,50.06
2023-03-26T02:13:31.880Z,49.43
2023-03-26T02:14:31.846Z,50.71
2023-03-26T02:15:31.821Z,44.43
2023-03-26T02:16:31.894Z,51.17
2023-03-26T02:17:31.865Z,49.45
2023-03-26T02:18:31.817Z,46.63
2023-03-26T02:19:31.787Z,48.94
2023-03-26T02:20:31.784Z,46.26
2023-03-26T02:21:31.792Z,47.35
2023-03-26T02:22:31.765Z,44.02
2023-03-26T02:23:31.719Z,49.99
2023-03-26T02:24:31.729Z,45.40
2023-03-26T02:25:31.746Z,49.63
2023-03-26T02:26:31.737Z,46.84
2023-03-26T02:27:31.677Z,48.65
2023-03-26T02:28:31.762Z,47.43
2023-03-26T02:29:31.664Z,47.88
2023-03-26T02:30:31.684Z,51.06
2023-03-26T02:31:31.719Z,47.99
2023-03-26T02:32:31.682Z,48.68
2023-03-26T02:33:31.614Z,47.02
2023-03-26T02:34:31.627Z,43.86
2023-03-26T02:35:31.727Z,49.92
2023-03-26T02:36:31.628Z,48.48
2023-03-26T02:37:31.626Z,49.68
2023-03-26T02:38:31.584Z,46.62
2023-03-26T02:39:31.552Z,51.18
2023-03-26T02:40:31.578Z,56.45
2023-03-26T02:41:31.586Z,49.80
2023-03-26T02:42:31.552Z,48.05
2023-03-26T02:43:31.510Z,47.46
2023-03-26T02:44:31.537Z,47.34
2023-03-26T02:45:31.517Z,46.77
2023-03-26T02:46:32.576Z,47.65
2023-03-26T02:47:31.545Z,43.80
2023-03-26T02:48:31.492Z,43.73
2023-03-26T02:49:31.477Z,42.97
2023-03-26T02:50:31.478Z,45.93
2023-03-26T02:51:31.501Z,44.82
2023-03-26T02:52:31.471Z,50.37
2023-03-26T02:53:31.412Z,51.32
2023-03-26T02:54:31.425Z,47.42
2023-03-26T02:55:31.426Z,50.47
2023-03-26T02:56:31.457Z,48.53
2023-03-26T02:57:31.386Z,46.47
2023-03-26T02:58:31.384Z,47.04
2023-03-26T02:59:31.385Z,47.18
2023-03-26T03:00:31.344Z,44.67
2023-03-26T03:01:31.399Z,44.81
2023-03-26T03:02:31.405Z,49.14
2023-03-26T03:03:31.358Z,52.23
2023-03-26T03:04:31.356Z,50.11
2023-03-26T03:05:31.345Z,49.00
2023-03-26T03:06:31.307Z,51.07
2023-03-26T03:08:03.216Z,50.71
2023-03-26T03:08:31.317Z,56.51
2023-03-26T03:09:31.266Z,50.97
2023-03-26T03:10:31.277Z,49.55
2023-03-26T03:11:31.251Z,48.42
2023-03-26T03:12:31.243Z,50.14
2023-03-26T03:13:31.233Z,49.03
2023-03-26T03:14:31.218Z,54.91
2023-03-26T03:15:31.209Z,44.14
2023-03-26T03:16:31.233Z,46.24
2023-03-26T03:17:31.237Z,45.89
2023-03-26T03:18:31.188Z,48.02
2023-03-26T03:19:31.178Z,46.93
2023-03-26T03:20:31.167Z,51.42
2023-03-26T03:21:31.147Z,51.10
2023-03-26T03:22:32.134Z,48.95
2023-03-26T03:23:31.128Z,43.82
2023-03-26T03:24:31.115Z,51.34
2023-03-26T03:25:31.114Z,48.52
2023-03-26T03:26:31.089Z,49.76
2023-03-26T03:27:31.097Z,46.98
2023-03-26T03:28:31.092Z,44.64
2023-03-26T03:29:31.077Z,49.83
2023-03-26T03:30:31.069Z,47.32
2023-03-26T03:31:31.068Z,48.95
2023-03-26T03:32:31.046Z,47.05
2023-03-26T03:33:31.061Z,48.29
2023-03-26T03:34:31.016Z,54.20
2023-03-26T03:35:31.015Z,46.51
2023-03-26T03:36:31.001Z,48.10
2023-03-26T03:37:30.983Z,49.23
2023-03-26T03:38:30.982Z,48.00
2023-03-26T03:39:30.968Z,48.07
2023-03-26T03:40:30.960Z,46.95
2023-03-26T03:41:30.937Z,46.94
2023-03-26T03:42:30.952Z,47.34
2023-03-26T03:43:30.913Z,48.96
2023-03-26T03:44:30.907Z,50.03
2023-03-26T03:45:30.949Z,50.07
2023-03-26T03:46:30.965Z,53.47
2023-03-26T03:47:30.966Z,48.32
2023-03-26T03:48:30.900Z,46.61
2023-03-26T03:49:30.871Z,50.42
2023-03-26T03:50:31.361Z,52.12
2023-03-26T03:51:30.858Z,52.00
2023-03-26T03:52:30.843Z,53.05
2023-03-26T03:53:30.824Z,47.20
2023-03-26T03:54:30.838Z,44.14
2023-03-26T03:55:30.794Z,45.95
2023-03-26T03:56:30.810Z,45.41
2023-03-26T03:57:30.789Z,50.98
2023-03-26T03:58:30.785Z,45.31
2023-03-26T03:59:30.751Z,45.52
2023-03-26T04:00:30.733Z,48.70
2023-03-26T04:01:30.814Z,45.82
2023-03-26T04:02:30.846Z,46.25
2023-03-26T04:03:33.670Z,45.39
2023-03-26T04:04:30.777Z,46.74
2023-03-26T04:05:30.712Z,49.14
2023-03-26T04:06:30.684Z,51.21
2023-03-26T04:07:30.690Z,51.76
2023-03-26T04:08:30.673Z,49.26
2023-03-26T04:09:30.683Z,45.63
2023-03-26T04:10:30.662Z,47.59
2023-03-26T04:11:30.631Z,46.38
2023-03-26T04:12:30.658Z,44.70
2023-03-26T04:13:30.630Z,49.01
2023-03-26T04:14:30.605Z,48.99
2023-03-26T04:15:30.607Z,48.12
2023-03-26T04:16:30.621Z,49.58
2023-03-26T04:17:30.723Z,48.90
2023-03-26T04:18:30.572Z,44.78
2023-03-26T04:19:30.575Z,45.66
2023-03-26T04:20:30.549Z,51.97
2023-03-26T04:21:30.545Z,50.82
2023-03-26T04:22:30.563Z,51.43
2023-03-26T04:23:30.509Z,50.93
2023-03-26T04:24:30.504Z,51.18
2023-03-26T04:25:30.509Z,49.26
2023-03-26T04:26:30.472Z,49.45
2023-03-26T04:27:30.484Z,48.57
2023-03-26T04:28:30.519Z,47.76
2023-03-26T04:29:30.435Z,52.06
2023-03-26T04:30:30.441Z,55.59
2023-03-26T04:31:30.521Z,49.86
2023-03-26T04:32:30.488Z,50.27
2023-03-26T04:33:30.421Z,52.88
2023-03-26T04:34:30.421Z,50.90
2023-03-26T04:35:30.470Z,51.39
2023-03-26T04:36:30.389Z,54.44
2023-03-26T04:37:30.379Z,52.45
2023-03-26T04:38:30.369Z,51.29
2023-03-26T04:39:30.339Z,50.60
2023-03-26T04:40:30.347Z,53.32
2023-03-26T04:41:30.325Z,49.61
2023-03-26T04:42:30.347Z,51.67
2023-03-26T04:43:30.329Z,50.59
2023-03-26T04:44:30.355Z,49.08
2023-03-26T04:45:30.321Z,50.57
2023-03-26T04:46:30.301Z,50.89
2023-03-26T04:47:30.367Z,46.99
2023-03-26T04:48:30.293Z,50.23
2023-03-26T04:49:30.243Z,53.54
2023-03-26T04:50:30.246Z,48.39
2023-03-26T04:51:30.232Z,49.90
2023-03-26T04:52:30.352Z,51.65
2023-03-26T04:53:30.202Z,53.15
2023-03-26T04:54:30.202Z,49.40
2023-03-26T04:55:30.202Z,52.36
2023-03-26T04:56:30.185Z,50.07
2023-03-26T04:57:30.177Z,52.71
2023-03-26T04:58:30.181Z,52.31
2023-03-26T04:59:30.204Z,50.44
2023-03-26T05:00:30.122Z,50.86
2023-03-26T05:01:30.210Z,52.02
2023-03-26T05:02:30.144Z,48.28
2023-03-26T05:03:30.119Z,47.87
2023-03-26T05:04:30.121Z,51.34
2023-03-26T05:05:30.100Z,54.76
2023-03-26T05:06:30.084Z,47.52
2023-03-26T05:07:30.075Z,49.34
2023-03-26T05:08:30.090Z,48.84
2023-03-26T05:09:30.056Z,57.48
2023-03-26T05:10:30.054Z,50.29
2023-03-26T05:11:30.036Z,50.41
2023-03-26T05:12:30.003Z,52.88
2023-03-26T05:13:30.009Z,52.71
2023-03-26T05:14:30.010Z,50.18
2023-03-26T05:15:30.003Z,50.79
2023-03-26T05:16:30.054Z,49.31
2023-03-26T05:17:29.960Z,49.75
2023-03-26T05:18:29.950Z,49.68
2023-03-26T05:19:29.956Z,50.87
2023-03-26T05:20:29.934Z,48.17
2023-03-26T05:21:29.933Z,47.63
2023-03-26T05:22:29.921Z,49.46
2023-03-26T05:23:29.892Z,50.96
2023-03-26T05:24:29.892Z,47.09
2023-03-26T05:25:29.898Z,49.89
2023-03-26T05:26:29.869Z,49.12
2023-03-26T05:27:29.856Z,54.79
2023-03-26T05:28:29.861Z,49.48
2023-03-26T05:29:29.831Z,53.62
2023-03-26T05:30:29.832Z,51.73
2023-03-26T05:31:29.846Z,53.50
2023-03-26T05:32:29.843Z,51.84
2023-03-26T05:33:29.947Z,51.37
2023-03-26T05:34:29.797Z,53.95
2023-03-26T05:35:29.824Z,55.66
2023-03-26T05:36:29.757Z,53.77
2023-03-26T05:37:29.766Z,50.30
2023-03-26T05:38:29.749Z,55.01
2023-03-26T05:39:29.736Z,52.80
2023-03-26T05:40:29.801Z,50.86
2023-03-26T05:41:29.711Z,52.32
2023-03-26T05:42:29.693Z,48.51
2023-03-26T05:43:29.708Z,51.01
2023-03-26T05:44:29.698Z,51.93
2023-03-26T05:45:29.683Z,50.95
2023-03-26T05:46:29.694Z,48.81
2023-03-26T05:47:29.671Z,49.51
2023-03-26T05:48:29.667Z,50.90
2023-03-26T05:49:29.664Z,53.03
2023-03-26T05:50:29.642Z,49.41
2023-03-26T05:51:29.608Z,50.04
2023-03-26T05:52:29.592Z,49.70
2023-03-26T05:53:29.589Z,47.14
2023-03-26T05:54:29.598Z,51.83
2023-03-26T05:55:29.581Z,56.30
2023-03-26T05:56:29.549Z,54.33
2023-03-26T05:57:29.569Z,54.44
2023-03-26T05:58:29.536Z,53.15
2023-03-26T05:59:29.538Z,51.77
2023-03-26T06:00:29.515Z,52.69
2023-03-26T06:01:29.497Z,52.94
2023-03-26T06:02:29.533Z,53.47
2023-03-26T06:03:29.597Z,52.73
2023-03-26T06:04:29.542Z,54.16
2023-03-26T06:05:29.484Z,53.01
2023-03-26T06:06:30.704Z,54.57
2023-03-26T06:07:29.435Z,52.95
2023-03-26T06:08:29.456Z,52.25
2023-03-26T06:09:29.459Z,53.24
2023-03-26T06:10:29.400Z,55.04
2023-03-26T06:11:29.408Z,52.62
2023-03-26T06:12:29.390Z,54.87
2023-03-26T06:13:29.390Z,52.72
2023-03-26T06:14:29.370Z,53.82
2023-03-26T06:15:29.407Z,51.06
2023-03-26T06:16:29.378Z,54.78
2023-03-26T06:17:29.412Z,51.03
2023-03-26T06:18:29.372Z,50.62
2023-03-26T06:19:29.310Z,53.62
2023-03-26T06:20:29.300Z,53.89
2023-03-26T06:21:29.300Z,54.26
2023-03-26T06:22:29.294Z,50.36
2023-03-26T06:23:29.294Z,55.27
2023-03-26T06:24:29.270Z,52.83
2023-03-26T06:25:29.269Z,52.07
2023-03-26T06:26:29.240Z,48.83
2023-03-26T06:27:29.250Z,50.72
2023-03-26T06:28:29.214Z,49.63
2023-03-26T06:29:29.224Z,53.60
2023-03-26T06:30:29.197Z,53.10
2023-03-26T06:31:29.228Z,54.20
2023-03-26T06:32:29.200Z,51.29
2023-03-26T06:33:29.191Z,54.76
2023-03-26T06:34:29.188Z,54.79
2023-03-26T06:35:29.145Z,53.56
2023-03-26T06:36:29.137Z,54.61
2023-03-26T06:37:29.125Z,56.28
2023-03-26T06:38:29.119Z,52.70
2023-03-26T06:39:30.122Z,52.55
2023-03-26T06:40:29.099Z,53.98
2023-03-26T06:41:29.088Z,51.09
2023-03-26T06:43:06.847Z,53.31
2023-03-26T06:43:30.067Z,53.89
2023-03-26T06:44:29.080Z,53.72
2023-03-26T06:45:29.080Z,55.25
2023-03-26T06:46:29.173Z,55.49
2023-03-26T06:47:29.082Z,51.98
2023-03-26T06:48:29.034Z,51.39
2023-03-26T06:49:29.029Z,53.08
2023-03-26T06:50:29.016Z,53.43
2023-03-26T06:51:29.003Z,54.30
2023-03-26T06:52:28.992Z,57.34
2023-03-26T06:53:28.992Z,52.87
2023-03-26T06:54:28.984Z,50.25
2023-03-26T06:55:28.974Z,49.87
2023-03-26T06:56:28.957Z,51.35
2023-03-26T06:57:28.944Z,52.65
2023-03-26T06:58:28.948Z,49.11
2023-03-26T06:59:28.896Z,48.89
2023-03-26T07:00:28.899Z,49.81
2023-03-26T07:01:28.948Z,54.14
2023-03-26T07:02:28.890Z,52.99
2023-03-26T07:03:28.866Z,52.64
2023-03-26T07:04:28.908Z,48.18
2023-03-26T07:05:28.852Z,48.37
2023-03-26T07:06:28.832Z,49.59
2023-03-26T07:07:28.835Z,48.77
2023-03-26T07:08:28.817Z,54.08
2023-03-26T07:09:28.805Z,51.78
2023-03-26T07:10:28.782Z,50.55
2023-03-26T07:11:28.796Z,51.97
2023-03-26T07:12:28.789Z,53.36
2023-03-26T07:13:28.782Z,53.19
2023-03-26T07:14:28.761Z,51.86
2023-03-26T07:15:28.756Z,51.87
2023-03-26T07:16:28.860Z,52.87
2023-03-26T07:17:28.747Z,53.07
2023-03-26T07:18:29.725Z,52.02
2023-03-26T07:19:28.686Z,49.37
2023-03-26T07:20:28.712Z,52.01
2023-03-26T07:21:28.681Z,54.58
2023-03-26T07:22:28.665Z,55.62
2023-03-26T07:23:28.650Z,53.93
2023-03-26T07:24:28.646Z,54.56
2023-03-26T07:25:28.637Z,50.21
2023-03-26T07:26:28.609Z,53.40
2023-03-26T07:27:28.615Z,51.91
2023-03-26T07:28:28.608Z,56.84
2023-03-26T07:29:28.587Z,54.74
2023-03-26T07:30:28.874Z,54.81
2023-03-26T07:31:28.569Z,52.54
2023-03-26T07:32:28.565Z,53.58
2023-03-26T07:33:28.552Z,55.86
2023-03-26T07:34:28.535Z,53.14
2023-03-26T07:35:28.542Z,52.55
2023-03-26T07:36:28.512Z,54.16
2023-03-26T07:37:28.507Z,52.08
2023-03-26T07:38:28.492Z,54.82
2023-03-26T07:39:28.465Z,53.54
2023-03-26T07:40:28.465Z,56.34
2023-03-26T07:41:28.471Z,54.55
2023-03-26T07:42:28.443Z,49.77
2023-03-26T07:43:28.420Z,55.57
2023-03-26T07:44:28.448Z,54.72
2023-03-26T07:45:28.507Z,55.41
2023-03-26T07:46:28.406Z,55.14
2023-03-26T07:47:28.428Z,57.34
2023-03-26T07:48:28.398Z,53.84
2023-03-26T07:49:28.352Z,54.23
2023-03-26T07:50:28.351Z,56.38
2023-03-26T07:51:28.345Z,59.80
2023-03-26T07:52:28.328Z,60.65
2023-03-26T07:53:28.321Z,55.04
2023-03-26T07:54:28.353Z,55.25
2023-03-26T07:55:28.291Z,56.63
2023-03-26T07:56:29.321Z,58.10
2023-03-26T07:57:28.313Z,53.84
2023-03-26T07:58:28.261Z,55.18
2023-03-26T07:59:28.238Z,59.30
2023-03-26T08:00:28.235Z,55.00
2023-03-26T08:01:28.232Z,58.14
2023-03-26T08:02:28.252Z,55.73
2023-03-26T08:03:28.274Z,56.32
2023-03-26T08:04:28.325Z,53.76
2023-03-26T08:05:28.178Z,56.61
2023-03-26T08:06:28.179Z,51.21
2023-03-26T08:07:28.169Z,54.92
2023-03-26T08:08:28.150Z,56.41
2023-03-26T08:09:28.155Z,56.41
2023-03-26T08:10:28.157Z,56.05
2023-03-26T08:11:28.129Z,55.95
2023-03-26T08:12:28.116Z,55.21
2023-03-26T08:13:28.114Z,54.12
2023-03-26T08:14:28.084Z,54.95
2023-03-26T08:15:28.136Z,52.98
2023-03-26T08:16:28.083Z,54.41
2023-03-26T08:17:30.578Z,52.44
2023-03-26T08:18:28.061Z,59.60
2023-03-26T08:19:28.037Z,54.01
2023-03-26T08:20:28.008Z,52.81
2023-03-26T08:21:28.018Z,55.29
2023-03-26T08:22:28.000Z,55.21
2023-03-26T08:23:28.005Z,54.13
2023-03-26T08:24:27.956Z,53.37
2023-03-26T08:25:27.989Z,54.70
2023-03-26T08:26:28.021Z,55.53
2023-03-26T08:27:27.955Z,56.15
2023-03-26T08:28:27.948Z,54.34
2023-03-26T08:29:27.968Z,53.36
2023-03-26T08:30:27.897Z,53.54
2023-03-26T08:31:27.925Z,56.25
2023-03-26T08:32:27.937Z,54.98
2023-03-26T08:33:27.885Z,55.21
2023-03-26T08:34:27.849Z,54.58
2023-03-26T08:35:27.883Z,52.80
2023-03-26T08:36:27.835Z,56.71
2023-03-26T08:37:27.891Z,54.06
2023-03-26T08:38:27.804Z,53.54
2023-03-26T08:39:27.808Z,57.29
2023-03-26T08:40:27.801Z,54.80
2023-03-26T08:41:27.770Z,56.30
2023-03-26T08:42:27.792Z,55.99
2023-03-26T08:43:27.738Z,55.41
2023-03-26T08:44:27.730Z,54.73
2023-03-26T08:45:27.730Z,55.87
2023-03-26T08:46:27.783Z,53.15
2023-03-26T08:47:27.703Z,55.31
2023-03-26T08:48:27.719Z,53.79
2023-03-26T08:49:29.543Z,55.91
2023-03-26T08:50:27.688Z,53.50
2023-03-26T08:51:27.680Z,55.24
2023-03-26T08:52:27.669Z,53.83
2023-03-26T08:53:27.632Z,56.93
2023-03-26T08:54:27.642Z,53.63
2023-03-26T08:55:27.618Z,55.89
2023-03-26T08:56:27.602Z,53.76
2023-03-26T08:57:27.601Z,55.77
2023-03-26T08:58:27.582Z,56.37
2023-03-26T08:59:27.609Z,54.93
2023-03-26T09:00:27.568Z,56.41
2023-03-26T09:01:27.598Z,54.86
2023-03-26T09:02:27.568Z,55.32
2023-03-26T09:03:27.535Z,58.81
2023-03-26T09:04:27.518Z,54.46
2023-03-26T09:05:27.496Z,56.43
2023-03-26T09:06:27.499Z,56.40
2023-03-26T09:07:27.497Z,57.32
2023-03-26T09:08:59.502Z,54.87
2023-03-26T09:09:27.498Z,52.67
2023-03-26T09:10:27.478Z,52.96
2023-03-26T09:11:27.427Z,57.98
2023-03-26T09:12:27.451Z,54.91
2023-03-26T09:13:27.416Z,56.29
2023-03-26T09:14:27.396Z,54.71
2023-03-26T09:15:27.398Z,55.22
2023-03-26T09:16:27.460Z,56.03
2023-03-26T09:17:27.856Z,54.57
2023-03-26T09:18:27.382Z,56.03
2023-03-26T09:19:27.347Z,54.31
2023-03-26T09:20:27.361Z,56.12
2023-03-26T09:21:27.329Z,56.07
2023-03-26T09:22:27.292Z,56.03
2023-03-26T09:23:27.323Z,54.91
2023-03-26T09:24:28.287Z,58.26
2023-03-26T09:25:27.265Z,57.68
2023-03-26T09:26:27.276Z,58.26
2023-03-26T09:27:27.262Z,57.69
2023-03-26T09:28:29.956Z,57.00
2023-03-26T09:29:27.259Z,54.50
2023-03-26T09:30:27.232Z,55.53
2023-03-26T09:31:27.258Z,53.69
2023-03-26T09:32:27.222Z,55.04
2023-03-26T09:33:27.195Z,56.60
2023-03-26T09:34:27.217Z,55.53
2023-03-26T09:35:27.203Z,55.20
2023-03-26T09:36:27.209Z,56.47
2023-03-26T09:37:27.163Z,55.55
2023-03-26T09:38:27.116Z,57.69
2023-03-26T09:39:27.127Z,56.70
2023-03-26T09:40:27.096Z,57.18
2023-03-26T09:41:27.113Z,56.16
2023-03-26T09:42:27.086Z,54.39
2023-03-26T09:43:27.063Z,57.38
2023-03-26T09:44:27.058Z,57.30
2023-03-26T09:45:27.077Z,56.47
2023-03-26T09:46:27.043Z,53.24
2023-03-26T09:47:27.073Z,58.53
2023-03-26T09:48:27.057Z,56.47
2023-03-26T09:49:27.031Z,56.23
2023-03-26T09:50:27.000Z,56.07
2023-03-26T09:51:27.773Z,57.71
2023-03-26T09:52:26.998Z,57.79
2023-03-26T09:53:26.992Z,56.56
2023-03-26T09:54:26.951Z,57.00
2023-03-26T09:55:26.952Z,55.27
2023-03-26T09:56:26.907Z,53.37
2023-03-26T09:57:26.940Z,60.05
2023-03-26T09:58:26.943Z,54.14
2023-03-26T09:59:26.893Z,54.95
2023-03-26T10:00:26.905Z,58.19
2023-03-26T10:01:26.893Z,57.60
2023-03-26T10:02:45.904Z,55.50
2023-03-26T10:03:27.854Z,57.65
2023-03-26T10:04:27.873Z,57.96
2023-03-26T10:05:26.829Z,55.96
2023-03-26T10:06:26.785Z,55.87
2023-03-26T10:07:26.800Z,58.00
2023-03-26T10:08:26.816Z,59.73
2023-03-26T10:09:26.793Z,55.76
2023-03-26T10:10:26.763Z,55.09
2023-03-26T10:11:26.761Z,56.26
2023-03-26T10:12:26.739Z,59.06
2023-03-26T10:13:26.767Z,56.63
2023-03-26T10:14:26.734Z,59.68
2023-03-26T10:15:26.723Z,55.46
2023-03-26T10:16:26.731Z,54.26
2023-03-26T10:17:26.714Z,59.82
2023-03-26T10:18:29.561Z,54.91
2023-03-26T10:19:26.673Z,55.34
2023-03-26T10:20:26.645Z,56.58
2023-03-26T10:21:28.057Z,55.15
2023-03-26T10:22:26.675Z,54.24
2023-03-26T10:23:26.658Z,54.90
2023-03-26T10:24:26.604Z,57.22
2023-03-26T10:25:26.593Z,56.96
2023-03-26T10:26:26.600Z,58.33
2023-03-26T10:27:26.569Z,57.77
2023-03-26T10:28:26.568Z,56.11
2023-03-26T10:29:26.567Z,54.08
2023-03-26T10:30:26.569Z,57.06
2023-03-26T10:31:26.562Z,54.88
2023-03-26T10:32:26.523Z,56.57
2023-03-26T10:33:26.514Z,55.27
2023-03-26T10:34:28.134Z,56.14
2023-03-26T10:35:26.516Z,56.35
2023-03-26T10:36:26.458Z,54.00
2023-03-26T10:37:26.458Z,57.10
2023-03-26T10:38:26.524Z,56.60
2023-03-26T10:39:35.915Z,57.98
2023-03-26T10:40:27.396Z,58.47
2023-03-26T10:41:26.417Z,56.76
2023-03-26T10:42:26.426Z,58.74
2023-03-26T10:43:26.385Z,58.09
2023-03-26T10:44:26.412Z,57.19
2023-03-26T10:45:26.358Z,57.07
2023-03-26T10:46:26.364Z,57.50
2023-03-26T10:47:26.352Z,59.21
2023-03-26T10:48:26.351Z,58.43
2023-03-26T10:49:26.339Z,58.08
2023-03-26T10:50:26.283Z,60.38
2023-03-26T10:51:26.293Z,59.46
2023-03-26T10:52:26.306Z,57.18
2023-03-26T10:53:26.302Z,59.65
2023-03-26T10:54:26.247Z,58.37
2023-03-26T10:55:26.247Z,59.54
2023-03-26T10:56:26.282Z,58.45
2023-03-26T10:57:26.232Z,60.35
2023-03-26T10:58:26.570Z,59.22
2023-03-26T10:59:27.054Z,59.85
2023-03-26T11:00:26.206Z,60.14
2023-03-26T11:01:26.203Z,61.39
2023-03-26T11:02:29.450Z,63.96
2023-03-26T11:03:26.169Z,61.04
2023-03-26T11:04:26.142Z,62.65
2023-03-26T11:05:26.150Z,61.58
2023-03-26T11:06:26.159Z,60.88
2023-03-26T11:07:26.557Z,60.97
2023-03-26T11:08:31.745Z,60.52
2023-03-26T11:09:27.097Z,60.98
2023-03-26T11:10:26.080Z,59.77
2023-03-26T11:11:26.069Z,60.98
2023-03-26T11:12:28.459Z,61.99
2023-03-26T11:13:26.068Z,62.38
2023-03-26T11:14:34.465Z,62.40
2023-03-26T11:15:28.269Z,62.52
2023-03-26T11:16:26.018Z,59.24
2023-03-26T11:17:40.864Z,62.21
2023-03-26T11:18:27.027Z,61.67
2023-03-26T11:19:25.998Z,60.91
2023-03-26T11:20:25.953Z,62.18
2023-03-26T11:21:26.021Z,61.16
2023-03-26T11:22:25.985Z,60.93
2023-03-26T11:23:25.971Z,60.88
2023-03-26T11:24:25.946Z,60.73
2023-03-26T11:25:25.920Z,62.76
2023-03-26T11:26:25.926Z,62.52
2023-03-26T11:27:26.577Z,61.51
2023-03-26T11:28:26.868Z,58.29
2023-03-26T11:29:31.057Z,61.08
2023-03-26T11:30:26.877Z,60.16
2023-03-26T11:31:25.911Z,62.80
2023-03-26T11:32:25.880Z,59.00
2023-03-26T11:33:25.828Z,60.29
2023-03-26T11:34:26.827Z,62.06
2023-03-26T11:35:41.025Z,57.95
2023-03-26T11:36:26.895Z,61.24
2023-03-26T11:37:25.809Z,62.20
2023-03-26T11:38:25.751Z,61.17
2023-03-26T11:39:25.784Z,62.81
2023-03-26T11:40:25.785Z,61.45
2023-03-26T11:41:25.739Z,63.95
2023-03-26T11:42:25.821Z,63.76
2023-03-26T11:43:25.735Z,59.99
2023-03-26T11:44:25.691Z,62.19
2023-03-26T11:45:25.718Z,63.65
2023-03-26T11:46:25.758Z,62.25
2023-03-26T11:47:25.715Z,60.70
2023-03-26T11:48:25.694Z,60.97
2023-03-26T11:49:25.670Z,60.30
2023-03-26T11:50:25.638Z,61.53
2023-03-26T11:51:25.649Z,61.58
2023-03-26T11:52:25.647Z,61.95
2023-03-26T11:53:25.609Z,62.68
2023-03-26T11:54:25.578Z,61.13
2023-03-26T11:55:25.638Z,64.44
2023-03-26T11:56:25.579Z,61.47
2023-03-26T11:57:25.567Z,62.48
2023-03-26T11:58:25.580Z,60.58
2023-03-26T11:59:25.561Z,64.02
2023-03-26T12:00:25.517Z,64.23
2023-03-26T12:01:25.521Z,61.80
2023-03-26T12:02:25.594Z,64.07
2023-03-26T12:03:25.496Z,62.65
2023-03-26T12:04:25.500Z,61.21
2023-03-26T12:05:25.610Z,63.02
2023-03-26T12:06:25.455Z,60.40
2023-03-26T12:07:25.484Z,61.29
2023-03-26T12:08:25.499Z,64.69
2023-03-26T12:09:25.428Z,63.34
2023-03-26T12:10:25.415Z,61.98
2023-03-26T12:11:25.446Z,60.92
2023-03-26T12:12:25.390Z,63.78
2023-03-26T12:13:25.384Z,64.00
2023-03-26T12:14:25.404Z,61.98
2023-03-26T12:15:25.380Z,60.57
2023-03-26T12:16:25.345Z,61.97
2023-03-26T12:17:31.314Z,61.82
2023-03-26T12:18:26.374Z,60.71
2023-03-26T12:19:25.310Z,60.44
2023-03-26T12:20:25.394Z,61.87
2023-03-26T12:21:25.317Z,60.84
2023-03-26T12:22:25.279Z,62.93
2023-03-26T12:23:25.275Z,61.38
2023-03-26T12:24:25.308Z,58.95
2023-03-26T12:25:25.306Z,57.80
2023-03-26T12:26:25.247Z,57.10
2023-03-26T12:27:25.240Z,59.80
2023-03-26T12:28:25.251Z,60.81
2023-03-26T12:29:25.217Z,61.17
2023-03-26T12:30:25.215Z,60.24
2023-03-26T12:31:25.259Z,57.15
2023-03-26T12:32:29.757Z,60.29
2023-03-26T12:33:27.236Z,59.77
2023-03-26T12:34:25.184Z,56.86
2023-03-26T12:35:25.223Z,59.30
2023-03-26T12:36:25.142Z,59.26
2023-03-26T12:37:25.127Z,57.18
2023-03-26T12:38:25.151Z,58.79
2023-03-26T12:40:10.275Z,59.07
2023-03-26T12:40:27.167Z,56.49
2023-03-26T12:42:36.679Z,56.94
2023-03-26T12:44:47.373Z,58.22
2023-03-26T12:44:47.906Z,54.98
2023-03-26T12:44:50.183Z,60.92
2023-03-26T12:45:26.548Z,56.58
2023-03-26T12:47:58.514Z,57.80
2023-03-26T12:47:59.507Z,57.33
2023-03-26T12:48:26.074Z,55.84
2023-03-26T12:49:25.060Z,54.61
2023-03-26T12:50:34.144Z,56.86
2023-03-26T12:51:26.044Z,58.79
2023-03-26T12:52:24.957Z,58.39